<?xml version="1.0" encoding="UTF-8" standalone="no" ?>
<gpx xmlns="http://www.topografix.com/GPX/1/1" xmlns:xsi="http://www.w3.org/2001/XMLSchema-instance" xsi:schemaLocation="http://www.topografix.com/GPX/1/1 http://www.topografix.com/GPX/1/1/gpx.xsd" version="1.1" creator="VisuGPX - https://www.visugpx.com">
  <metadata>
    <name>Tour VTT Gréoux</name>
    <desc><![CDATA[Petit tour au sud de Gréoux sur un sentier spécial VTT avec chemin forestier et single en descente]]></desc>
  </metadata>
  <trk>
    <name><![CDATA[1 mai 2011 16:38:38]]></name>
    <cmt><![CDATA[1 mai 2011 16:38:38]]></cmt>
    <trkseg>
      <trkpt lat="43.75331" lon="5.8903">
        <ele>258</ele>
        <time>2011-05-01T14:38:38Z</time>
      </trkpt>
      <trkpt lat="43.7534" lon="5.89023">
        <ele>267</ele>
        <time>2011-05-01T14:43:29Z</time>
      </trkpt>
      <trkpt lat="43.75333" lon="5.88996">
        <ele>270</ele>
        <time>2011-05-01T14:44:21Z</time>
      </trkpt>
      <trkpt lat="43.75318" lon="5.8897">
        <ele>275</ele>
        <time>2011-05-01T14:44:48Z</time>
      </trkpt>
      <trkpt lat="43.75245" lon="5.88647">
        <ele>275</ele>
        <time>2011-05-01T14:46:09Z</time>
      </trkpt>
      <trkpt lat="43.75236" lon="5.88627">
        <ele>271</ele>
        <time>2011-05-01T14:46:22Z</time>
      </trkpt>
      <trkpt lat="43.75222" lon="5.88613">
        <ele>270</ele>
        <time>2011-05-01T14:46:28Z</time>
      </trkpt>
      <trkpt lat="43.75191" lon="5.88595">
        <ele>273</ele>
        <time>2011-05-01T14:46:42Z</time>
      </trkpt>
      <trkpt lat="43.75156" lon="5.88599">
        <ele>281</ele>
        <time>2011-05-01T14:47:01Z</time>
      </trkpt>
      <trkpt lat="43.75137" lon="5.88545">
        <ele>284</ele>
        <time>2011-05-01T14:47:23Z</time>
      </trkpt>
      <trkpt lat="43.75127" lon="5.88521">
        <ele>282</ele>
        <time>2011-05-01T14:47:33Z</time>
      </trkpt>
      <trkpt lat="43.75104" lon="5.88509">
        <ele>282</ele>
        <time>2011-05-01T14:47:44Z</time>
      </trkpt>
      <trkpt lat="43.75072" lon="5.885">
        <ele>287</ele>
        <time>2011-05-01T14:48:00Z</time>
      </trkpt>
      <trkpt lat="43.74999" lon="5.88507">
        <ele>291</ele>
        <time>2011-05-01T14:48:30Z</time>
      </trkpt>
      <trkpt lat="43.74981" lon="5.88506">
        <ele>293</ele>
        <time>2011-05-01T14:48:37Z</time>
      </trkpt>
      <trkpt lat="43.74943" lon="5.88522">
        <ele>296</ele>
        <time>2011-05-01T14:49:02Z</time>
      </trkpt>
      <trkpt lat="43.74884" lon="5.88562">
        <ele>297</ele>
        <time>2011-05-01T14:49:26Z</time>
      </trkpt>
      <trkpt lat="43.74853" lon="5.88591">
        <ele>300</ele>
        <time>2011-05-01T14:49:38Z</time>
      </trkpt>
      <trkpt lat="43.74841" lon="5.88608">
        <ele>300</ele>
        <time>2011-05-01T14:49:44Z</time>
      </trkpt>
      <trkpt lat="43.74822" lon="5.88645">
        <ele>303</ele>
        <time>2011-05-01T14:49:56Z</time>
      </trkpt>
      <trkpt lat="43.74811" lon="5.88662">
        <ele>303</ele>
        <time>2011-05-01T14:50:02Z</time>
      </trkpt>
      <trkpt lat="43.74787" lon="5.88661">
        <ele>306</ele>
        <time>2011-05-01T14:50:12Z</time>
      </trkpt>
      <trkpt lat="43.74761" lon="5.88627">
        <ele>308</ele>
        <time>2011-05-01T14:50:23Z</time>
      </trkpt>
      <trkpt lat="43.7475" lon="5.88607">
        <ele>308</ele>
        <time>2011-05-01T14:50:30Z</time>
      </trkpt>
      <trkpt lat="43.7474" lon="5.88585">
        <ele>309</ele>
        <time>2011-05-01T14:50:38Z</time>
      </trkpt>
      <trkpt lat="43.74726" lon="5.88567">
        <ele>309</ele>
        <time>2011-05-01T14:50:44Z</time>
      </trkpt>
      <trkpt lat="43.74709" lon="5.88565">
        <ele>311</ele>
        <time>2011-05-01T14:50:51Z</time>
      </trkpt>
      <trkpt lat="43.74692" lon="5.88566">
        <ele>311</ele>
        <time>2011-05-01T14:50:58Z</time>
      </trkpt>
      <trkpt lat="43.74676" lon="5.88558">
        <ele>313</ele>
        <time>2011-05-01T14:51:05Z</time>
      </trkpt>
      <trkpt lat="43.7466" lon="5.88556">
        <ele>313</ele>
        <time>2011-05-01T14:51:12Z</time>
      </trkpt>
      <trkpt lat="43.74649" lon="5.88573">
        <ele>312</ele>
        <time>2011-05-01T14:51:20Z</time>
      </trkpt>
      <trkpt lat="43.7464" lon="5.88588">
        <ele>313</ele>
        <time>2011-05-01T14:51:25Z</time>
      </trkpt>
      <trkpt lat="43.74624" lon="5.88595">
        <ele>313</ele>
        <time>2011-05-01T14:51:32Z</time>
      </trkpt>
      <trkpt lat="43.74607" lon="5.88589">
        <ele>315</ele>
        <time>2011-05-01T14:51:39Z</time>
      </trkpt>
      <trkpt lat="43.7457" lon="5.88561">
        <ele>321</ele>
        <time>2011-05-01T14:51:57Z</time>
      </trkpt>
      <trkpt lat="43.74489" lon="5.88548">
        <ele>328</ele>
        <time>2011-05-01T14:52:30Z</time>
      </trkpt>
      <trkpt lat="43.74474" lon="5.88554">
        <ele>330</ele>
        <time>2011-05-01T14:52:36Z</time>
      </trkpt>
      <trkpt lat="43.74457" lon="5.88562">
        <ele>329</ele>
        <time>2011-05-01T14:52:43Z</time>
      </trkpt>
      <trkpt lat="43.74441" lon="5.88571">
        <ele>330</ele>
        <time>2011-05-01T14:52:51Z</time>
      </trkpt>
      <trkpt lat="43.74431" lon="5.88552">
        <ele>333</ele>
        <time>2011-05-01T14:52:58Z</time>
      </trkpt>
      <trkpt lat="43.74436" lon="5.88525">
        <ele>335</ele>
        <time>2011-05-01T14:53:07Z</time>
      </trkpt>
      <trkpt lat="43.74448" lon="5.88506">
        <ele>335</ele>
        <time>2011-05-01T14:53:16Z</time>
      </trkpt>
      <trkpt lat="43.74459" lon="5.88487">
        <ele>336</ele>
        <time>2011-05-01T14:53:27Z</time>
      </trkpt>
      <trkpt lat="43.74507" lon="5.88439">
        <ele>346</ele>
        <time>2011-05-01T14:54:00Z</time>
      </trkpt>
      <trkpt lat="43.74524" lon="5.88428">
        <ele>351</ele>
        <time>2011-05-01T14:54:08Z</time>
      </trkpt>
      <trkpt lat="43.74543" lon="5.88414">
        <ele>349</ele>
        <time>2011-05-01T14:54:18Z</time>
      </trkpt>
      <trkpt lat="43.74552" lon="5.88395">
        <ele>348</ele>
        <time>2011-05-01T14:54:29Z</time>
      </trkpt>
      <trkpt lat="43.74553" lon="5.88358">
        <ele>350</ele>
        <time>2011-05-01T14:54:41Z</time>
      </trkpt>
      <trkpt lat="43.74546" lon="5.88301">
        <ele>354</ele>
        <time>2011-05-01T14:55:00Z</time>
      </trkpt>
      <trkpt lat="43.74531" lon="5.88273">
        <ele>357</ele>
        <time>2011-05-01T14:55:11Z</time>
      </trkpt>
      <trkpt lat="43.74517" lon="5.88282">
        <ele>359</ele>
        <time>2011-05-01T14:55:23Z</time>
      </trkpt>
      <trkpt lat="43.74498" lon="5.88297">
        <ele>362</ele>
        <time>2011-05-01T14:55:34Z</time>
      </trkpt>
      <trkpt lat="43.74475" lon="5.88317">
        <ele>363</ele>
        <time>2011-05-01T14:55:47Z</time>
      </trkpt>
      <trkpt lat="43.74452" lon="5.88331">
        <ele>368</ele>
        <time>2011-05-01T14:55:58Z</time>
      </trkpt>
      <trkpt lat="43.7442" lon="5.88383">
        <ele>368</ele>
        <time>2011-05-01T14:56:17Z</time>
      </trkpt>
      <trkpt lat="43.74409" lon="5.88404">
        <ele>368</ele>
        <time>2011-05-01T14:56:24Z</time>
      </trkpt>
      <trkpt lat="43.7437" lon="5.88447">
        <ele>373</ele>
        <time>2011-05-01T14:56:44Z</time>
      </trkpt>
      <trkpt lat="43.74348" lon="5.88463">
        <ele>375</ele>
        <time>2011-05-01T14:56:53Z</time>
      </trkpt>
      <trkpt lat="43.74328" lon="5.88485">
        <ele>374</ele>
        <time>2011-05-01T14:57:02Z</time>
      </trkpt>
      <trkpt lat="43.74319" lon="5.88506">
        <ele>374</ele>
        <time>2011-05-01T14:57:09Z</time>
      </trkpt>
      <trkpt lat="43.74318" lon="5.8853">
        <ele>372</ele>
        <time>2011-05-01T14:57:16Z</time>
      </trkpt>
      <trkpt lat="43.74318" lon="5.88555">
        <ele>372</ele>
        <time>2011-05-01T14:57:24Z</time>
      </trkpt>
      <trkpt lat="43.74309" lon="5.88592">
        <ele>375</ele>
        <time>2011-05-01T14:57:37Z</time>
      </trkpt>
      <trkpt lat="43.74286" lon="5.88618">
        <ele>377</ele>
        <time>2011-05-01T14:57:48Z</time>
      </trkpt>
      <trkpt lat="43.74235" lon="5.88698">
        <ele>385</ele>
        <time>2011-05-01T14:58:17Z</time>
      </trkpt>
      <trkpt lat="43.74195" lon="5.88728">
        <ele>384</ele>
        <time>2011-05-01T14:58:32Z</time>
      </trkpt>
      <trkpt lat="43.74142" lon="5.88742">
        <ele>384</ele>
        <time>2011-05-01T14:58:50Z</time>
      </trkpt>
      <trkpt lat="43.74126" lon="5.88746">
        <ele>386</ele>
        <time>2011-05-01T14:58:55Z</time>
      </trkpt>
      <trkpt lat="43.74109" lon="5.8875">
        <ele>386</ele>
        <time>2011-05-01T14:59:02Z</time>
      </trkpt>
      <trkpt lat="43.74086" lon="5.88758">
        <ele>390</ele>
        <time>2011-05-01T14:59:12Z</time>
      </trkpt>
      <trkpt lat="43.74055" lon="5.88752">
        <ele>392</ele>
        <time>2011-05-01T14:59:23Z</time>
      </trkpt>
      <trkpt lat="43.74025" lon="5.88706">
        <ele>397</ele>
        <time>2011-05-01T14:59:38Z</time>
      </trkpt>
      <trkpt lat="43.74021" lon="5.88677">
        <ele>394</ele>
        <time>2011-05-01T14:59:45Z</time>
      </trkpt>
      <trkpt lat="43.74012" lon="5.88659">
        <ele>393</ele>
        <time>2011-05-01T14:59:57Z</time>
      </trkpt>
      <trkpt lat="43.7399" lon="5.88644">
        <ele>394</ele>
        <time>2011-05-01T15:00:12Z</time>
      </trkpt>
      <trkpt lat="43.73974" lon="5.88644">
        <ele>395</ele>
        <time>2011-05-01T15:00:19Z</time>
      </trkpt>
      <trkpt lat="43.73958" lon="5.88649">
        <ele>396</ele>
        <time>2011-05-01T15:00:25Z</time>
      </trkpt>
      <trkpt lat="43.73943" lon="5.88664">
        <ele>398</ele>
        <time>2011-05-01T15:00:32Z</time>
      </trkpt>
      <trkpt lat="43.73932" lon="5.88682">
        <ele>397</ele>
        <time>2011-05-01T15:00:38Z</time>
      </trkpt>
      <trkpt lat="43.73925" lon="5.88702">
        <ele>399</ele>
        <time>2011-05-01T15:00:44Z</time>
      </trkpt>
      <trkpt lat="43.7392" lon="5.88724">
        <ele>399</ele>
        <time>2011-05-01T15:00:50Z</time>
      </trkpt>
      <trkpt lat="43.73922" lon="5.88771">
        <ele>396</ele>
        <time>2011-05-01T15:01:03Z</time>
      </trkpt>
      <trkpt lat="43.73926" lon="5.88843">
        <ele>396</ele>
        <time>2011-05-01T15:01:24Z</time>
      </trkpt>
      <trkpt lat="43.73928" lon="5.88868">
        <ele>398</ele>
        <time>2011-05-01T15:01:31Z</time>
      </trkpt>
      <trkpt lat="43.73897" lon="5.88914">
        <ele>404</ele>
        <time>2011-05-01T15:01:51Z</time>
      </trkpt>
      <trkpt lat="43.73881" lon="5.88919">
        <ele>406</ele>
        <time>2011-05-01T15:01:57Z</time>
      </trkpt>
      <trkpt lat="43.73847" lon="5.8892">
        <ele>407</ele>
        <time>2011-05-01T15:02:10Z</time>
      </trkpt>
      <trkpt lat="43.73831" lon="5.88909">
        <ele>408</ele>
        <time>2011-05-01T15:02:15Z</time>
      </trkpt>
      <trkpt lat="43.73816" lon="5.88898">
        <ele>408</ele>
        <time>2011-05-01T15:02:20Z</time>
      </trkpt>
      <trkpt lat="43.738" lon="5.88891">
        <ele>410</ele>
        <time>2011-05-01T15:02:26Z</time>
      </trkpt>
      <trkpt lat="43.73784" lon="5.88896">
        <ele>412</ele>
        <time>2011-05-01T15:02:33Z</time>
      </trkpt>
      <trkpt lat="43.73772" lon="5.88911">
        <ele>414</ele>
        <time>2011-05-01T15:02:40Z</time>
      </trkpt>
      <trkpt lat="43.73756" lon="5.8892">
        <ele>415</ele>
        <time>2011-05-01T15:02:48Z</time>
      </trkpt>
      <trkpt lat="43.73739" lon="5.88918">
        <ele>417</ele>
        <time>2011-05-01T15:02:57Z</time>
      </trkpt>
      <trkpt lat="43.7371" lon="5.88888">
        <ele>420</ele>
        <time>2011-05-01T15:03:11Z</time>
      </trkpt>
      <trkpt lat="43.73694" lon="5.88883">
        <ele>421</ele>
        <time>2011-05-01T15:03:18Z</time>
      </trkpt>
      <trkpt lat="43.7367" lon="5.88892">
        <ele>426</ele>
        <time>2011-05-01T15:03:28Z</time>
      </trkpt>
      <trkpt lat="43.73656" lon="5.88902">
        <ele>428</ele>
        <time>2011-05-01T15:03:34Z</time>
      </trkpt>
      <trkpt lat="43.73641" lon="5.88919">
        <ele>428</ele>
        <time>2011-05-01T15:03:41Z</time>
      </trkpt>
      <trkpt lat="43.73608" lon="5.88954">
        <ele>430</ele>
        <time>2011-05-01T15:03:56Z</time>
      </trkpt>
      <trkpt lat="43.73577" lon="5.88977">
        <ele>427</ele>
        <time>2011-05-01T15:04:08Z</time>
      </trkpt>
      <trkpt lat="43.73528" lon="5.89058">
        <ele>428</ele>
        <time>2011-05-01T15:04:35Z</time>
      </trkpt>
      <trkpt lat="43.73491" lon="5.89084">
        <ele>433</ele>
        <time>2011-05-01T15:04:48Z</time>
      </trkpt>
      <trkpt lat="43.73476" lon="5.89095">
        <ele>432</ele>
        <time>2011-05-01T15:04:54Z</time>
      </trkpt>
      <trkpt lat="43.73461" lon="5.89103">
        <ele>438</ele>
        <time>2011-05-01T15:05:19Z</time>
      </trkpt>
      <trkpt lat="43.73454" lon="5.89098">
        <ele>432</ele>
        <time>2011-05-01T15:05:53Z</time>
      </trkpt>
      <trkpt lat="43.73444" lon="5.89119">
        <ele>427</ele>
        <time>2011-05-01T15:06:28Z</time>
      </trkpt>
      <trkpt lat="43.73366" lon="5.89167">
        <ele>427</ele>
        <time>2011-05-01T15:06:38Z</time>
      </trkpt>
      <trkpt lat="43.73356" lon="5.89173">
        <ele>426</ele>
        <time>2011-05-01T15:06:39Z</time>
      </trkpt>
      <trkpt lat="43.73336" lon="5.89186">
        <ele>426</ele>
        <time>2011-05-01T15:06:41Z</time>
      </trkpt>
      <trkpt lat="43.73314" lon="5.89198">
        <ele>424</ele>
        <time>2011-05-01T15:06:43Z</time>
      </trkpt>
      <trkpt lat="43.73096" lon="5.89283">
        <ele>419</ele>
        <time>2011-05-01T15:07:04Z</time>
      </trkpt>
      <trkpt lat="43.73064" lon="5.89272">
        <ele>416</ele>
        <time>2011-05-01T15:07:08Z</time>
      </trkpt>
      <trkpt lat="43.72781" lon="5.89188">
        <ele>390</ele>
        <time>2011-05-01T15:07:36Z</time>
      </trkpt>
      <trkpt lat="43.72755" lon="5.89144">
        <ele>383</ele>
        <time>2011-05-01T15:07:45Z</time>
      </trkpt>
      <trkpt lat="43.72745" lon="5.89163">
        <ele>378</ele>
        <time>2011-05-01T15:07:52Z</time>
      </trkpt>
      <trkpt lat="43.72741" lon="5.89191">
        <ele>377</ele>
        <time>2011-05-01T15:07:56Z</time>
      </trkpt>
      <trkpt lat="43.72725" lon="5.89222">
        <ele>376</ele>
        <time>2011-05-01T15:08:00Z</time>
      </trkpt>
      <trkpt lat="43.72678" lon="5.8925">
        <ele>374</ele>
        <time>2011-05-01T15:08:07Z</time>
      </trkpt>
      <trkpt lat="43.72634" lon="5.89248">
        <ele>373</ele>
        <time>2011-05-01T15:08:15Z</time>
      </trkpt>
      <trkpt lat="43.72627" lon="5.89238">
        <ele>360</ele>
        <time>2011-05-01T15:08:59Z</time>
      </trkpt>
      <trkpt lat="43.72617" lon="5.89257">
        <ele>357</ele>
        <time>2011-05-01T15:09:17Z</time>
      </trkpt>
      <trkpt lat="43.72612" lon="5.8928">
        <ele>356</ele>
        <time>2011-05-01T15:09:24Z</time>
      </trkpt>
      <trkpt lat="43.7258" lon="5.89354">
        <ele>360</ele>
        <time>2011-05-01T15:09:49Z</time>
      </trkpt>
      <trkpt lat="43.72565" lon="5.89363">
        <ele>361</ele>
        <time>2011-05-01T15:09:55Z</time>
      </trkpt>
      <trkpt lat="43.72546" lon="5.89403">
        <ele>361</ele>
        <time>2011-05-01T15:10:07Z</time>
      </trkpt>
      <trkpt lat="43.72494" lon="5.89509">
        <ele>370</ele>
        <time>2011-05-01T15:10:40Z</time>
      </trkpt>
      <trkpt lat="43.72464" lon="5.89572">
        <ele>376</ele>
        <time>2011-05-01T15:10:59Z</time>
      </trkpt>
      <trkpt lat="43.72453" lon="5.89599">
        <ele>376</ele>
        <time>2011-05-01T15:11:08Z</time>
      </trkpt>
      <trkpt lat="43.7244" lon="5.89623">
        <ele>380</ele>
        <time>2011-05-01T15:11:50Z</time>
      </trkpt>
      <trkpt lat="43.72444" lon="5.89626">
        <ele>369</ele>
        <time>2011-05-01T15:12:31Z</time>
      </trkpt>
      <trkpt lat="43.72431" lon="5.89641">
        <ele>369</ele>
        <time>2011-05-01T15:12:55Z</time>
      </trkpt>
      <trkpt lat="43.72417" lon="5.89652">
        <ele>371</ele>
        <time>2011-05-01T15:13:02Z</time>
      </trkpt>
      <trkpt lat="43.72409" lon="5.89659">
        <ele>371</ele>
        <time>2011-05-01T15:13:06Z</time>
      </trkpt>
      <trkpt lat="43.72375" lon="5.89696">
        <ele>374</ele>
        <time>2011-05-01T15:13:28Z</time>
      </trkpt>
      <trkpt lat="43.72361" lon="5.89705">
        <ele>380</ele>
        <time>2011-05-01T15:13:39Z</time>
      </trkpt>
      <trkpt lat="43.72344" lon="5.89681">
        <ele>385</ele>
        <time>2011-05-01T15:13:56Z</time>
      </trkpt>
      <trkpt lat="43.72335" lon="5.89672">
        <ele>386</ele>
        <time>2011-05-01T15:14:03Z</time>
      </trkpt>
      <trkpt lat="43.72327" lon="5.89677">
        <ele>390</ele>
        <time>2011-05-01T15:14:10Z</time>
      </trkpt>
      <trkpt lat="43.72322" lon="5.89699">
        <ele>390</ele>
        <time>2011-05-01T15:14:19Z</time>
      </trkpt>
      <trkpt lat="43.72307" lon="5.89746">
        <ele>395</ele>
        <time>2011-05-01T15:14:38Z</time>
      </trkpt>
      <trkpt lat="43.723" lon="5.89768">
        <ele>395</ele>
        <time>2011-05-01T15:14:48Z</time>
      </trkpt>
      <trkpt lat="43.72291" lon="5.89789">
        <ele>397</ele>
        <time>2011-05-01T15:14:57Z</time>
      </trkpt>
      <trkpt lat="43.72283" lon="5.89808">
        <ele>397</ele>
        <time>2011-05-01T15:15:07Z</time>
      </trkpt>
      <trkpt lat="43.72276" lon="5.89826">
        <ele>400</ele>
        <time>2011-05-01T15:15:16Z</time>
      </trkpt>
      <trkpt lat="43.72267" lon="5.89846">
        <ele>400</ele>
        <time>2011-05-01T15:15:25Z</time>
      </trkpt>
      <trkpt lat="43.7224" lon="5.89894">
        <ele>404</ele>
        <time>2011-05-01T15:15:48Z</time>
      </trkpt>
      <trkpt lat="43.72232" lon="5.89914">
        <ele>404</ele>
        <time>2011-05-01T15:15:55Z</time>
      </trkpt>
      <trkpt lat="43.72227" lon="5.89936">
        <ele>405</ele>
        <time>2011-05-01T15:16:02Z</time>
      </trkpt>
      <trkpt lat="43.72229" lon="5.89959">
        <ele>405</ele>
        <time>2011-05-01T15:16:09Z</time>
      </trkpt>
      <trkpt lat="43.72246" lon="5.90022">
        <ele>405</ele>
        <time>2011-05-01T15:16:27Z</time>
      </trkpt>
      <trkpt lat="43.72254" lon="5.90047">
        <ele>404</ele>
        <time>2011-05-01T15:16:31Z</time>
      </trkpt>
      <trkpt lat="43.72257" lon="5.90097">
        <ele>404</ele>
        <time>2011-05-01T15:16:38Z</time>
      </trkpt>
      <trkpt lat="43.72257" lon="5.90123">
        <ele>403</ele>
        <time>2011-05-01T15:16:41Z</time>
      </trkpt>
      <trkpt lat="43.72254" lon="5.90221">
        <ele>403</ele>
        <time>2011-05-01T15:17:01Z</time>
      </trkpt>
      <trkpt lat="43.7225" lon="5.90243">
        <ele>402</ele>
        <time>2011-05-01T15:17:08Z</time>
      </trkpt>
      <trkpt lat="43.72252" lon="5.90256">
        <ele>400</ele>
        <time>2011-05-01T15:17:13Z</time>
      </trkpt>
      <trkpt lat="43.72266" lon="5.90291">
        <ele>398</ele>
        <time>2011-05-01T15:17:24Z</time>
      </trkpt>
      <trkpt lat="43.7229" lon="5.90343">
        <ele>398</ele>
        <time>2011-05-01T15:17:42Z</time>
      </trkpt>
      <trkpt lat="43.72313" lon="5.90377">
        <ele>401</ele>
        <time>2011-05-01T15:17:59Z</time>
      </trkpt>
      <trkpt lat="43.7236" lon="5.90419">
        <ele>412</ele>
        <time>2011-05-01T15:18:38Z</time>
      </trkpt>
      <trkpt lat="43.72377" lon="5.90462">
        <ele>412</ele>
        <time>2011-05-01T15:18:53Z</time>
      </trkpt>
      <trkpt lat="43.72414" lon="5.90536">
        <ele>417</ele>
        <time>2011-05-01T15:19:28Z</time>
      </trkpt>
      <trkpt lat="43.72468" lon="5.90669">
        <ele>418</ele>
        <time>2011-05-01T15:20:06Z</time>
      </trkpt>
      <trkpt lat="43.72483" lon="5.90699">
        <ele>417</ele>
        <time>2011-05-01T15:20:13Z</time>
      </trkpt>
      <trkpt lat="43.72497" lon="5.90712">
        <ele>419</ele>
        <time>2011-05-01T15:20:18Z</time>
      </trkpt>
      <trkpt lat="43.72529" lon="5.90745">
        <ele>421</ele>
        <time>2011-05-01T15:20:37Z</time>
      </trkpt>
      <trkpt lat="43.72553" lon="5.90797">
        <ele>426</ele>
        <time>2011-05-01T15:20:56Z</time>
      </trkpt>
      <trkpt lat="43.72566" lon="5.90812">
        <ele>426</ele>
        <time>2011-05-01T15:21:02Z</time>
      </trkpt>
      <trkpt lat="43.72627" lon="5.90846">
        <ele>437</ele>
        <time>2011-05-01T15:21:34Z</time>
      </trkpt>
      <trkpt lat="43.72646" lon="5.90853">
        <ele>437</ele>
        <time>2011-05-01T15:21:46Z</time>
      </trkpt>
      <trkpt lat="43.72672" lon="5.90844">
        <ele>442</ele>
        <time>2011-05-01T15:22:02Z</time>
      </trkpt>
      <trkpt lat="43.72696" lon="5.90825">
        <ele>448</ele>
        <time>2011-05-01T15:22:22Z</time>
      </trkpt>
      <trkpt lat="43.7271" lon="5.90828">
        <ele>452</ele>
        <time>2011-05-01T15:22:32Z</time>
      </trkpt>
      <trkpt lat="43.72737" lon="5.90854">
        <ele>450</ele>
        <time>2011-05-01T15:22:55Z</time>
      </trkpt>
      <trkpt lat="43.72759" lon="5.90871">
        <ele>450</ele>
        <time>2011-05-01T15:23:09Z</time>
      </trkpt>
      <trkpt lat="43.72767" lon="5.90875">
        <ele>451</ele>
        <time>2011-05-01T15:23:15Z</time>
      </trkpt>
      <trkpt lat="43.72775" lon="5.90874">
        <ele>454</ele>
        <time>2011-05-01T15:23:38Z</time>
      </trkpt>
      <trkpt lat="43.72781" lon="5.90887">
        <ele>454</ele>
        <time>2011-05-01T15:24:40Z</time>
      </trkpt>
      <trkpt lat="43.72797" lon="5.9087">
        <ele>458</ele>
        <time>2011-05-01T15:26:28Z</time>
      </trkpt>
      <trkpt lat="43.72814" lon="5.90867">
        <ele>457</ele>
        <time>2011-05-01T15:26:41Z</time>
      </trkpt>
      <trkpt lat="43.7283" lon="5.9086">
        <ele>460</ele>
        <time>2011-05-01T15:26:55Z</time>
      </trkpt>
      <trkpt lat="43.72845" lon="5.90851">
        <ele>461</ele>
        <time>2011-05-01T15:27:09Z</time>
      </trkpt>
      <trkpt lat="43.72853" lon="5.90832">
        <ele>465</ele>
        <time>2011-05-01T15:27:23Z</time>
      </trkpt>
      <trkpt lat="43.72882" lon="5.90804">
        <ele>468</ele>
        <time>2011-05-01T15:27:44Z</time>
      </trkpt>
      <trkpt lat="43.72916" lon="5.90727">
        <ele>478</ele>
        <time>2011-05-01T15:28:24Z</time>
      </trkpt>
      <trkpt lat="43.72935" lon="5.90713">
        <ele>481</ele>
        <time>2011-05-01T15:28:36Z</time>
      </trkpt>
      <trkpt lat="43.72981" lon="5.90685">
        <ele>481</ele>
        <time>2011-05-01T15:29:02Z</time>
      </trkpt>
      <trkpt lat="43.7302" lon="5.90638">
        <ele>488</ele>
        <time>2011-05-01T15:29:39Z</time>
      </trkpt>
      <trkpt lat="43.73035" lon="5.90629">
        <ele>492</ele>
        <time>2011-05-01T15:29:51Z</time>
      </trkpt>
      <trkpt lat="43.73044" lon="5.90648">
        <ele>491</ele>
        <time>2011-05-01T15:30:04Z</time>
      </trkpt>
      <trkpt lat="43.73047" lon="5.9067">
        <ele>492</ele>
        <time>2011-05-01T15:30:34Z</time>
      </trkpt>
      <trkpt lat="43.73055" lon="5.90666">
        <ele>490</ele>
        <time>2011-05-01T15:31:44Z</time>
      </trkpt>
      <trkpt lat="43.73061" lon="5.90654">
        <ele>493</ele>
        <time>2011-05-01T15:31:53Z</time>
      </trkpt>
      <trkpt lat="43.73063" lon="5.90637">
        <ele>492</ele>
        <time>2011-05-01T15:32:05Z</time>
      </trkpt>
      <trkpt lat="43.73069" lon="5.90585">
        <ele>504</ele>
        <time>2011-05-01T15:32:33Z</time>
      </trkpt>
      <trkpt lat="43.73079" lon="5.90568">
        <ele>505</ele>
        <time>2011-05-01T15:32:41Z</time>
      </trkpt>
      <trkpt lat="43.7309" lon="5.90549">
        <ele>504</ele>
        <time>2011-05-01T15:32:48Z</time>
      </trkpt>
      <trkpt lat="43.73098" lon="5.90508">
        <ele>508</ele>
        <time>2011-05-01T15:33:00Z</time>
      </trkpt>
      <trkpt lat="43.731" lon="5.90482">
        <ele>512</ele>
        <time>2011-05-01T15:33:10Z</time>
      </trkpt>
      <trkpt lat="43.73102" lon="5.9046">
        <ele>513</ele>
        <time>2011-05-01T15:33:23Z</time>
      </trkpt>
      <trkpt lat="43.73108" lon="5.90437">
        <ele>513</ele>
        <time>2011-05-01T15:33:34Z</time>
      </trkpt>
      <trkpt lat="43.73137" lon="5.90381">
        <ele>509</ele>
        <time>2011-05-01T15:34:09Z</time>
      </trkpt>
      <trkpt lat="43.73164" lon="5.90355">
        <ele>511</ele>
        <time>2011-05-01T15:34:28Z</time>
      </trkpt>
      <trkpt lat="43.73183" lon="5.90319">
        <ele>518</ele>
        <time>2011-05-01T15:34:51Z</time>
      </trkpt>
      <trkpt lat="43.73202" lon="5.90275">
        <ele>525</ele>
        <time>2011-05-01T15:35:11Z</time>
      </trkpt>
      <trkpt lat="43.73221" lon="5.90238">
        <ele>527</ele>
        <time>2011-05-01T15:35:30Z</time>
      </trkpt>
      <trkpt lat="43.73231" lon="5.90219">
        <ele>531</ele>
        <time>2011-05-01T15:35:40Z</time>
      </trkpt>
      <trkpt lat="43.73266" lon="5.90167">
        <ele>535</ele>
        <time>2011-05-01T15:36:13Z</time>
      </trkpt>
      <trkpt lat="43.73306" lon="5.90094">
        <ele>540</ele>
        <time>2011-05-01T15:36:32Z</time>
      </trkpt>
      <trkpt lat="43.73326" lon="5.90053">
        <ele>538</ele>
        <time>2011-05-01T15:36:42Z</time>
      </trkpt>
      <trkpt lat="43.73335" lon="5.90033">
        <ele>538</ele>
        <time>2011-05-01T15:36:47Z</time>
      </trkpt>
      <trkpt lat="43.73382" lon="5.89873">
        <ele>530</ele>
        <time>2011-05-01T15:37:17Z</time>
      </trkpt>
      <trkpt lat="43.73398" lon="5.89841">
        <ele>531</ele>
        <time>2011-05-01T15:37:25Z</time>
      </trkpt>
      <trkpt lat="43.73427" lon="5.89761">
        <ele>526</ele>
        <time>2011-05-01T15:37:50Z</time>
      </trkpt>
      <trkpt lat="43.73436" lon="5.89696">
        <ele>513</ele>
        <time>2011-05-01T15:38:09Z</time>
      </trkpt>
      <trkpt lat="43.7345" lon="5.8967">
        <ele>505</ele>
        <time>2011-05-01T15:38:28Z</time>
      </trkpt>
      <trkpt lat="43.73473" lon="5.89658">
        <ele>496</ele>
        <time>2011-05-01T15:38:52Z</time>
      </trkpt>
      <trkpt lat="43.73474" lon="5.89657">
        <ele>484</ele>
        <time>2011-05-01T15:40:38Z</time>
      </trkpt>
      <trkpt lat="43.73465" lon="5.89638">
        <ele>486</ele>
        <time>2011-05-01T15:40:50Z</time>
      </trkpt>
      <trkpt lat="43.73463" lon="5.89626">
        <ele>486</ele>
        <time>2011-05-01T15:40:53Z</time>
      </trkpt>
      <trkpt lat="43.73462" lon="5.89603">
        <ele>485</ele>
        <time>2011-05-01T15:41:00Z</time>
      </trkpt>
      <trkpt lat="43.73476" lon="5.89549">
        <ele>483</ele>
        <time>2011-05-01T15:41:19Z</time>
      </trkpt>
      <trkpt lat="43.73512" lon="5.89507">
        <ele>483</ele>
        <time>2011-05-01T15:41:31Z</time>
      </trkpt>
      <trkpt lat="43.73559" lon="5.89479">
        <ele>486</ele>
        <time>2011-05-01T15:41:47Z</time>
      </trkpt>
      <trkpt lat="43.73592" lon="5.89447">
        <ele>485</ele>
        <time>2011-05-01T15:42:25Z</time>
      </trkpt>
      <trkpt lat="43.73673" lon="5.89391">
        <ele>485</ele>
        <time>2011-05-01T15:43:14Z</time>
      </trkpt>
      <trkpt lat="43.73665" lon="5.89376">
        <ele>475</ele>
        <time>2011-05-01T15:43:26Z</time>
      </trkpt>
      <trkpt lat="43.73644" lon="5.89298">
        <ele>478</ele>
        <time>2011-05-01T15:43:41Z</time>
      </trkpt>
      <trkpt lat="43.73632" lon="5.89236">
        <ele>478</ele>
        <time>2011-05-01T15:43:50Z</time>
      </trkpt>
      <trkpt lat="43.73609" lon="5.89227">
        <ele>477</ele>
        <time>2011-05-01T15:43:55Z</time>
      </trkpt>
      <trkpt lat="43.73589" lon="5.89211">
        <ele>475</ele>
        <time>2011-05-01T15:44:00Z</time>
      </trkpt>
      <trkpt lat="43.7344" lon="5.89083">
        <ele>453</ele>
        <time>2011-05-01T15:44:32Z</time>
      </trkpt>
      <trkpt lat="43.73413" lon="5.89059">
        <ele>453</ele>
        <time>2011-05-01T15:44:38Z</time>
      </trkpt>
      <trkpt lat="43.73344" lon="5.89023">
        <ele>448</ele>
        <time>2011-05-01T15:44:54Z</time>
      </trkpt>
      <trkpt lat="43.73326" lon="5.89021">
        <ele>448</ele>
        <time>2011-05-01T15:45:00Z</time>
      </trkpt>
      <trkpt lat="43.7331" lon="5.89">
        <ele>450</ele>
        <time>2011-05-01T15:45:18Z</time>
      </trkpt>
      <trkpt lat="43.73309" lon="5.88977">
        <ele>447</ele>
        <time>2011-05-01T15:45:44Z</time>
      </trkpt>
      <trkpt lat="43.73309" lon="5.88945">
        <ele>451</ele>
        <time>2011-05-01T15:46:19Z</time>
      </trkpt>
      <trkpt lat="43.73315" lon="5.88906">
        <ele>458</ele>
        <time>2011-05-01T15:46:51Z</time>
      </trkpt>
      <trkpt lat="43.73317" lon="5.88893">
        <ele>458</ele>
        <time>2011-05-01T15:46:58Z</time>
      </trkpt>
      <trkpt lat="43.73317" lon="5.88866">
        <ele>460</ele>
        <time>2011-05-01T15:47:18Z</time>
      </trkpt>
      <trkpt lat="43.73323" lon="5.88841">
        <ele>460</ele>
        <time>2011-05-01T15:47:25Z</time>
      </trkpt>
      <trkpt lat="43.7332" lon="5.88774">
        <ele>462</ele>
        <time>2011-05-01T15:47:34Z</time>
      </trkpt>
      <trkpt lat="43.73332" lon="5.88652">
        <ele>456</ele>
        <time>2011-05-01T15:47:46Z</time>
      </trkpt>
      <trkpt lat="43.73353" lon="5.88535">
        <ele>445</ele>
        <time>2011-05-01T15:48:01Z</time>
      </trkpt>
      <trkpt lat="43.73362" lon="5.88532">
        <ele>444</ele>
        <time>2011-05-01T15:48:03Z</time>
      </trkpt>
      <trkpt lat="43.73381" lon="5.88524">
        <ele>421</ele>
        <time>2011-05-01T15:49:36Z</time>
      </trkpt>
      <trkpt lat="43.73422" lon="5.88487">
        <ele>421</ele>
        <time>2011-05-01T15:49:45Z</time>
      </trkpt>
      <trkpt lat="43.73462" lon="5.88419">
        <ele>419</ele>
        <time>2011-05-01T15:50:01Z</time>
      </trkpt>
      <trkpt lat="43.73469" lon="5.88398">
        <ele>424</ele>
        <time>2011-05-01T15:50:20Z</time>
      </trkpt>
      <trkpt lat="43.73465" lon="5.8838">
        <ele>424</ele>
        <time>2011-05-01T15:50:26Z</time>
      </trkpt>
      <trkpt lat="43.73465" lon="5.88364">
        <ele>416</ele>
        <time>2011-05-01T15:51:20Z</time>
      </trkpt>
      <trkpt lat="43.73473" lon="5.8836">
        <ele>413</ele>
        <time>2011-05-01T15:51:58Z</time>
      </trkpt>
      <trkpt lat="43.73483" lon="5.88371">
        <ele>413</ele>
        <time>2011-05-01T15:52:24Z</time>
      </trkpt>
      <trkpt lat="43.73508" lon="5.88398">
        <ele>416</ele>
        <time>2011-05-01T15:53:15Z</time>
      </trkpt>
      <trkpt lat="43.73497" lon="5.88408">
        <ele>420</ele>
        <time>2011-05-01T15:53:55Z</time>
      </trkpt>
      <trkpt lat="43.73486" lon="5.88412">
        <ele>418</ele>
        <time>2011-05-01T15:54:36Z</time>
      </trkpt>
      <trkpt lat="43.73488" lon="5.88425">
        <ele>419</ele>
        <time>2011-05-01T15:55:13Z</time>
      </trkpt>
      <trkpt lat="43.73506" lon="5.88417">
        <ele>419</ele>
        <time>2011-05-01T15:55:19Z</time>
      </trkpt>
      <trkpt lat="43.7352" lon="5.88408">
        <ele>418</ele>
        <time>2011-05-01T15:55:25Z</time>
      </trkpt>
      <trkpt lat="43.73533" lon="5.88399">
        <ele>418</ele>
        <time>2011-05-01T15:55:30Z</time>
      </trkpt>
      <trkpt lat="43.73548" lon="5.8839">
        <ele>417</ele>
        <time>2011-05-01T15:55:35Z</time>
      </trkpt>
      <trkpt lat="43.73565" lon="5.88381">
        <ele>417</ele>
        <time>2011-05-01T15:55:40Z</time>
      </trkpt>
      <trkpt lat="43.73609" lon="5.88369">
        <ele>418</ele>
        <time>2011-05-01T15:55:52Z</time>
      </trkpt>
      <trkpt lat="43.7365" lon="5.88333">
        <ele>417</ele>
        <time>2011-05-01T15:56:02Z</time>
      </trkpt>
      <trkpt lat="43.73664" lon="5.88326">
        <ele>412</ele>
        <time>2011-05-01T15:56:16Z</time>
      </trkpt>
      <trkpt lat="43.73681" lon="5.88313">
        <ele>411</ele>
        <time>2011-05-01T15:56:21Z</time>
      </trkpt>
      <trkpt lat="43.73723" lon="5.88286">
        <ele>411</ele>
        <time>2011-05-01T15:56:32Z</time>
      </trkpt>
      <trkpt lat="43.73771" lon="5.88281">
        <ele>403</ele>
        <time>2011-05-01T15:56:45Z</time>
      </trkpt>
      <trkpt lat="43.7378" lon="5.8828">
        <ele>387</ele>
        <time>2011-05-01T15:57:24Z</time>
      </trkpt>
      <trkpt lat="43.73788" lon="5.88272">
        <ele>384</ele>
        <time>2011-05-01T15:57:50Z</time>
      </trkpt>
      <trkpt lat="43.73806" lon="5.88265">
        <ele>384</ele>
        <time>2011-05-01T15:57:55Z</time>
      </trkpt>
      <trkpt lat="43.7384" lon="5.88275">
        <ele>384</ele>
        <time>2011-05-01T15:58:03Z</time>
      </trkpt>
      <trkpt lat="43.73856" lon="5.88268">
        <ele>383</ele>
        <time>2011-05-01T15:58:08Z</time>
      </trkpt>
      <trkpt lat="43.73866" lon="5.88269">
        <ele>380</ele>
        <time>2011-05-01T15:58:35Z</time>
      </trkpt>
      <trkpt lat="43.73872" lon="5.88249">
        <ele>379</ele>
        <time>2011-05-01T15:59:02Z</time>
      </trkpt>
      <trkpt lat="43.73879" lon="5.88239">
        <ele>378</ele>
        <time>2011-05-01T15:59:04Z</time>
      </trkpt>
      <trkpt lat="43.73905" lon="5.88209">
        <ele>378</ele>
        <time>2011-05-01T15:59:10Z</time>
      </trkpt>
      <trkpt lat="43.73917" lon="5.88193">
        <ele>377</ele>
        <time>2011-05-01T15:59:14Z</time>
      </trkpt>
      <trkpt lat="43.7393" lon="5.88194">
        <ele>375</ele>
        <time>2011-05-01T15:59:36Z</time>
      </trkpt>
      <trkpt lat="43.73939" lon="5.88193">
        <ele>364</ele>
        <time>2011-05-01T15:59:46Z</time>
      </trkpt>
      <trkpt lat="43.73948" lon="5.88189">
        <ele>364</ele>
        <time>2011-05-01T15:59:52Z</time>
      </trkpt>
      <trkpt lat="43.7397" lon="5.88179">
        <ele>362</ele>
        <time>2011-05-01T16:00:07Z</time>
      </trkpt>
      <trkpt lat="43.74046" lon="5.88134">
        <ele>360</ele>
        <time>2011-05-01T16:00:20Z</time>
      </trkpt>
      <trkpt lat="43.74092" lon="5.88097">
        <ele>355</ele>
        <time>2011-05-01T16:01:08Z</time>
      </trkpt>
      <trkpt lat="43.74102" lon="5.88108">
        <ele>322</ele>
        <time>2011-05-01T16:01:44Z</time>
      </trkpt>
      <trkpt lat="43.74104" lon="5.88154">
        <ele>331</ele>
        <time>2011-05-01T16:02:04Z</time>
      </trkpt>
      <trkpt lat="43.74112" lon="5.88191">
        <ele>333</ele>
        <time>2011-05-01T16:02:17Z</time>
      </trkpt>
      <trkpt lat="43.74114" lon="5.88203">
        <ele>333</ele>
        <time>2011-05-01T16:02:21Z</time>
      </trkpt>
      <trkpt lat="43.74122" lon="5.88259">
        <ele>336</ele>
        <time>2011-05-01T16:02:39Z</time>
      </trkpt>
      <trkpt lat="43.74123" lon="5.88271">
        <ele>336</ele>
        <time>2011-05-01T16:02:43Z</time>
      </trkpt>
      <trkpt lat="43.74118" lon="5.88349">
        <ele>344</ele>
        <time>2011-05-01T16:03:21Z</time>
      </trkpt>
      <trkpt lat="43.74114" lon="5.88364">
        <ele>346</ele>
        <time>2011-05-01T16:03:34Z</time>
      </trkpt>
      <trkpt lat="43.74101" lon="5.88376">
        <ele>349</ele>
        <time>2011-05-01T16:03:45Z</time>
      </trkpt>
      <trkpt lat="43.74111" lon="5.88392">
        <ele>350</ele>
        <time>2011-05-01T16:03:53Z</time>
      </trkpt>
      <trkpt lat="43.74128" lon="5.88401">
        <ele>350</ele>
        <time>2011-05-01T16:03:57Z</time>
      </trkpt>
      <trkpt lat="43.74183" lon="5.88428">
        <ele>345</ele>
        <time>2011-05-01T16:04:10Z</time>
      </trkpt>
      <trkpt lat="43.74223" lon="5.88421">
        <ele>345</ele>
        <time>2011-05-01T16:04:24Z</time>
      </trkpt>
      <trkpt lat="43.74239" lon="5.8841">
        <ele>344</ele>
        <time>2011-05-01T16:04:30Z</time>
      </trkpt>
      <trkpt lat="43.7425" lon="5.88396">
        <ele>344</ele>
        <time>2011-05-01T16:04:35Z</time>
      </trkpt>
      <trkpt lat="43.74257" lon="5.88389">
        <ele>343</ele>
        <time>2011-05-01T16:04:37Z</time>
      </trkpt>
      <trkpt lat="43.74266" lon="5.88382">
        <ele>343</ele>
        <time>2011-05-01T16:04:39Z</time>
      </trkpt>
      <trkpt lat="43.74277" lon="5.88366">
        <ele>342</ele>
        <time>2011-05-01T16:04:42Z</time>
      </trkpt>
      <trkpt lat="43.74299" lon="5.88339">
        <ele>342</ele>
        <time>2011-05-01T16:04:48Z</time>
      </trkpt>
      <trkpt lat="43.74332" lon="5.88322">
        <ele>342</ele>
        <time>2011-05-01T16:04:55Z</time>
      </trkpt>
      <trkpt lat="43.74338" lon="5.88299">
        <ele>341</ele>
        <time>2011-05-01T16:05:00Z</time>
      </trkpt>
      <trkpt lat="43.74336" lon="5.88274">
        <ele>340</ele>
        <time>2011-05-01T16:05:05Z</time>
      </trkpt>
      <trkpt lat="43.74342" lon="5.88253">
        <ele>340</ele>
        <time>2011-05-01T16:05:10Z</time>
      </trkpt>
      <trkpt lat="43.7436" lon="5.88241">
        <ele>340</ele>
        <time>2011-05-01T16:05:14Z</time>
      </trkpt>
      <trkpt lat="43.74393" lon="5.88231">
        <ele>340</ele>
        <time>2011-05-01T16:05:20Z</time>
      </trkpt>
      <trkpt lat="43.74434" lon="5.88205">
        <ele>336</ele>
        <time>2011-05-01T16:05:28Z</time>
      </trkpt>
      <trkpt lat="43.74452" lon="5.88175">
        <ele>331</ele>
        <time>2011-05-01T16:05:33Z</time>
      </trkpt>
      <trkpt lat="43.74483" lon="5.88135">
        <ele>322</ele>
        <time>2011-05-01T16:05:42Z</time>
      </trkpt>
      <trkpt lat="43.745" lon="5.88087">
        <ele>311</ele>
        <time>2011-05-01T16:05:54Z</time>
      </trkpt>
      <trkpt lat="43.74518" lon="5.88082">
        <ele>308</ele>
        <time>2011-05-01T16:05:59Z</time>
      </trkpt>
      <trkpt lat="43.74569" lon="5.88062">
        <ele>302</ele>
        <time>2011-05-01T16:06:15Z</time>
      </trkpt>
      <trkpt lat="43.74618" lon="5.88023">
        <ele>303</ele>
        <time>2011-05-01T16:06:35Z</time>
      </trkpt>
      <trkpt lat="43.74624" lon="5.8802">
        <ele>297</ele>
        <time>2011-05-01T16:06:54Z</time>
      </trkpt>
      <trkpt lat="43.74616" lon="5.88042">
        <ele>297</ele>
        <time>2011-05-01T16:06:59Z</time>
      </trkpt>
      <trkpt lat="43.74621" lon="5.88065">
        <ele>296</ele>
        <time>2011-05-01T16:07:03Z</time>
      </trkpt>
      <trkpt lat="43.74634" lon="5.88078">
        <ele>297</ele>
        <time>2011-05-01T16:07:07Z</time>
      </trkpt>
      <trkpt lat="43.74661" lon="5.88101">
        <ele>297</ele>
        <time>2011-05-01T16:07:15Z</time>
      </trkpt>
      <trkpt lat="43.74669" lon="5.88122">
        <ele>296</ele>
        <time>2011-05-01T16:07:19Z</time>
      </trkpt>
      <trkpt lat="43.74677" lon="5.88149">
        <ele>296</ele>
        <time>2011-05-01T16:07:24Z</time>
      </trkpt>
      <trkpt lat="43.74698" lon="5.88216">
        <ele>292</ele>
        <time>2011-05-01T16:07:36Z</time>
      </trkpt>
      <trkpt lat="43.7471" lon="5.88235">
        <ele>292</ele>
        <time>2011-05-01T16:07:40Z</time>
      </trkpt>
      <trkpt lat="43.74725" lon="5.88252">
        <ele>293</ele>
        <time>2011-05-01T16:07:44Z</time>
      </trkpt>
      <trkpt lat="43.74741" lon="5.88269">
        <ele>292</ele>
        <time>2011-05-01T16:07:48Z</time>
      </trkpt>
      <trkpt lat="43.74758" lon="5.88284">
        <ele>293</ele>
        <time>2011-05-01T16:07:52Z</time>
      </trkpt>
      <trkpt lat="43.74785" lon="5.8829">
        <ele>293</ele>
        <time>2011-05-01T16:07:57Z</time>
      </trkpt>
      <trkpt lat="43.74802" lon="5.88287">
        <ele>294</ele>
        <time>2011-05-01T16:08:00Z</time>
      </trkpt>
      <trkpt lat="43.74818" lon="5.88284">
        <ele>294</ele>
        <time>2011-05-01T16:08:03Z</time>
      </trkpt>
      <trkpt lat="43.74833" lon="5.88282">
        <ele>295</ele>
        <time>2011-05-01T16:08:06Z</time>
      </trkpt>
      <trkpt lat="43.74848" lon="5.88287">
        <ele>294</ele>
        <time>2011-05-01T16:08:09Z</time>
      </trkpt>
      <trkpt lat="43.74856" lon="5.88294">
        <ele>294</ele>
        <time>2011-05-01T16:08:11Z</time>
      </trkpt>
      <trkpt lat="43.74871" lon="5.88314">
        <ele>293</ele>
        <time>2011-05-01T16:08:15Z</time>
      </trkpt>
      <trkpt lat="43.7488" lon="5.88332">
        <ele>293</ele>
        <time>2011-05-01T16:08:18Z</time>
      </trkpt>
      <trkpt lat="43.74888" lon="5.88351">
        <ele>294</ele>
        <time>2011-05-01T16:08:21Z</time>
      </trkpt>
      <trkpt lat="43.74895" lon="5.88371">
        <ele>292</ele>
        <time>2011-05-01T16:08:24Z</time>
      </trkpt>
      <trkpt lat="43.74906" lon="5.88394">
        <ele>293</ele>
        <time>2011-05-01T16:08:28Z</time>
      </trkpt>
      <trkpt lat="43.74921" lon="5.88404">
        <ele>293</ele>
        <time>2011-05-01T16:08:32Z</time>
      </trkpt>
      <trkpt lat="43.74941" lon="5.88403">
        <ele>294</ele>
        <time>2011-05-01T16:08:36Z</time>
      </trkpt>
      <trkpt lat="43.7496" lon="5.88398">
        <ele>295</ele>
        <time>2011-05-01T16:08:40Z</time>
      </trkpt>
      <trkpt lat="43.74999" lon="5.88398">
        <ele>295</ele>
        <time>2011-05-01T16:08:48Z</time>
      </trkpt>
      <trkpt lat="43.75015" lon="5.88412">
        <ele>293</ele>
        <time>2011-05-01T16:08:52Z</time>
      </trkpt>
      <trkpt lat="43.75024" lon="5.88424">
        <ele>293</ele>
        <time>2011-05-01T16:08:56Z</time>
      </trkpt>
      <trkpt lat="43.75033" lon="5.88443">
        <ele>291</ele>
        <time>2011-05-01T16:09:01Z</time>
      </trkpt>
      <trkpt lat="43.75044" lon="5.88462">
        <ele>291</ele>
        <time>2011-05-01T16:09:06Z</time>
      </trkpt>
      <trkpt lat="43.75053" lon="5.88476">
        <ele>290</ele>
        <time>2011-05-01T16:09:10Z</time>
      </trkpt>
      <trkpt lat="43.7512" lon="5.88528">
        <ele>290</ele>
        <time>2011-05-01T16:09:29Z</time>
      </trkpt>
      <trkpt lat="43.75127" lon="5.88556">
        <ele>291</ele>
        <time>2011-05-01T16:09:33Z</time>
      </trkpt>
      <trkpt lat="43.75141" lon="5.88576">
        <ele>291</ele>
        <time>2011-05-01T16:09:37Z</time>
      </trkpt>
      <trkpt lat="43.75165" lon="5.88578">
        <ele>292</ele>
        <time>2011-05-01T16:09:41Z</time>
      </trkpt>
      <trkpt lat="43.75204" lon="5.88586">
        <ele>294</ele>
        <time>2011-05-01T16:09:47Z</time>
      </trkpt>
      <trkpt lat="43.75236" lon="5.88607">
        <ele>292</ele>
        <time>2011-05-01T16:09:53Z</time>
      </trkpt>
      <trkpt lat="43.75265" lon="5.88658">
        <ele>290</ele>
        <time>2011-05-01T16:10:01Z</time>
      </trkpt>
      <trkpt lat="43.75298" lon="5.88771">
        <ele>285</ele>
        <time>2011-05-01T16:10:13Z</time>
      </trkpt>
      <trkpt lat="43.75303" lon="5.88839">
        <ele>284</ele>
        <time>2011-05-01T16:10:20Z</time>
      </trkpt>
      <trkpt lat="43.75332" lon="5.89004">
        <ele>280</ele>
        <time>2011-05-01T16:10:47Z</time>
      </trkpt>
      <trkpt lat="43.75334" lon="5.89014">
        <ele>279</ele>
        <time>2011-05-01T16:11:10Z</time>
      </trkpt>
      <trkpt lat="43.75338" lon="5.89018">
        <ele>278</ele>
        <time>2011-05-01T16:12:25Z</time>
      </trkpt>
      <trkpt lat="43.75338" lon="5.89025">
        <ele>275</ele>
        <time>2011-05-01T16:18:46Z</time>
      </trkpt>
    </trkseg>
  </trk>
</gpx>